Portland, Oregon
Traffic Map
Current Weather Conditions
Portland, Oregon
Few Clouds
Few Clouds
70°
Feels Like: 70°
Wind Chill: 70° Ceiling: Unl
Heat Index: 70° Visibility: 10mi
Dew Point: 59° Wind: 3mph
Humidity: 68% Direction: ° ()
Pressure: 30.1in Gusts: 0mph
Raw Report DataKPDX 191753Z VRB03KT 10SM FEW035 21/15 A3010 RMK AO2 SLP191 T02110150 10217 20167 50006
Traffic Incident Summary
Active as of:
Severity:
Category:
InformationThere was an issue retrieving the traffic information for this location. Please try a different location or try again shortly.
Advertisements
Track Severe Weather on mobile